Time;durP1;ratioP1;P1;durP2;ratioP2;P2;SDS_P1;SDS_P2;PMS_P1;PMS_P2;Temp;Humidity;BMP_temperature;BMP_pressure;BME280_temperature;BME280_humidity;BME280_pressure;Samples;Min_cycle;Max_cycle;Signal;HPM_P1;HPM_P2
2021/12/27 00:01:14;;;;;;;21.75;11.55;;;-0.80;99.90;;;;;;6157802;23;20457;-81
2021/12/27 00:03:45;;;;;;;20.08;10.25;;;-0.80;99.90;;;;;;6133673;23;20033;-81
2021/12/27 00:06:12;;;;;;;19.95;10.52;;;-0.70;99.90;;;;;;6158276;23;20053;-81
2021/12/27 00:08:41;;;;;;;19.77;10.50;;;-0.70;99.90;;;;;;6133774;23;20464;-81
2021/12/27 00:11:12;;;;;;;22.23;11.85;;;-0.70;99.90;;;;;;6134220;23;20560;-80
2021/12/27 00:13:44;;;;;;;20.35;10.57;;;-0.70;99.90;;;;;;6158203;23;20021;-81
2021/12/27 00:16:12;;;;;;;21.33;11.50;;;-0.70;99.90;;;;;;6134211;23;20040;-81
2021/12/27 00:18:38;;;;;;;18.08;9.93;;;-0.80;99.90;;;;;;6157973;23;20460;-80
2021/12/27 00:21:04;;;;;;;20.67;10.43;;;-0.80;99.90;;;;;;6157855;23;20020;-81
2021/12/27 00:23:30;;;;;;;19.85;11.20;;;-0.80;99.90;;;;;;6157939;23;20044;-80
2021/12/27 00:25:56;;;;;;;19.17;10.50;;;-0.80;99.90;;;;;;6133636;23;20021;-81
2021/12/27 00:28:22;;;;;;;20.83;11.00;;;-0.80;99.90;;;;;;6157566;23;20082;-81
2021/12/27 00:30:47;;;;;;;19.10;12.07;;;-0.80;99.90;;;;;;6184558;23;20048;-81
2021/12/27 00:33:13;;;;;;;22.17;11.20;;;-0.80;99.90;;;;;;6133093;23;20456;-81
2021/12/27 00:35:40;;;;;;;22.50;10.10;;;-0.90;99.90;;;;;;6133310;23;20021;-81
2021/12/27 00:38:06;;;;;;;19.90;10.85;;;-0.80;99.90;;;;;;6132569;23;20028;-80
2021/12/27 00:40:37;;;;;;;20.25;10.88;;;-0.80;99.90;;;;;;6157580;23;20021;-81
2021/12/27 00:43:03;;;;;;;20.48;12.30;;;-0.80;99.90;;;;;;6133902;23;20029;-81
2021/12/27 00:45:29;;;;;;;22.83;11.20;;;-0.90;99.90;;;;;;6157675;23;20021;-81
2021/12/27 00:47:55;;;;;;;20.27;11.07;;;-0.90;99.90;;;;;;6158087;23;20060;-81
2021/12/27 00:50:21;;;;;;;27.17;13.07;;;-0.90;99.90;;;;;;6157757;23;20028;-81
2021/12/27 00:52:47;;;;;;;21.48;11.40;;;-0.90;99.90;;;;;;6157887;23;20021;-81
2021/12/27 00:55:15;;;;;;;18.85;11.13;;;-1.00;99.90;;;;;;6157758;23;20114;-81
2021/12/27 00:57:41;;;;;;;20.02;11.05;;;-1.00;99.90;;;;;;6132931;23;20452;-81
2021/12/27 01:00:12;;;;;;;20.92;11.88;;;-1.00;99.90;;;;;;6133281;23;20483;-81
2021/12/27 01:02:39;;;;;;;23.00;12.13;;;-1.00;99.90;;;;;;6132555;23;20032;-82
2021/12/27 01:05:06;;;;;;;20.67;12.15;;;-1.00;99.90;;;;;;6157482;23;20032;-82
2021/12/27 01:07:38;;;;;;;20.48;11.23;;;-1.00;99.90;;;;;;6157375;23;20295;-80
2021/12/27 01:10:27;;;;;;;24.02;11.98;;;-1.10;99.90;;;;;;6134280;23;20021;-80
2021/12/27 01:18:00;;;;;;;22.52;10.93;;;-1.00;99.90;;;;;;6156246;23;20500;-80
2021/12/27 01:20:26;;;;;;;20.90;11.07;;;-1.00;99.90;;;;;;6157265;23;20024;-81
2021/12/27 01:22:53;;;;;;;22.90;11.32;;;-1.00;99.90;;;;;;6157595;23;20029;-81
2021/12/27 01:25:20;;;;;;;22.23;11.85;;;-1.00;99.90;;;;;;6133078;23;20104;-81
2021/12/27 01:27:47;;;;;;;20.05;11.07;;;-1.00;99.90;;;;;;6160326;23;20017;-81
2021/12/27 01:30:16;;;;;;;21.77;11.57;;;-1.00;99.90;;;;;;6139827;23;20397;-82
2021/12/27 01:32:48;;;;;;;22.52;11.73;;;-1.00;99.90;;;;;;6141382;23;20053;-82
2021/12/27 01:35:15;;;;;;;22.98;13.30;;;-1.00;99.90;;;;;;6164053;23;20057;-80
2021/12/27 01:37:43;;;;;;;20.52;11.30;;;-0.90;99.90;;;;;;6158179;23;20025;-81
2021/12/27 01:40:10;;;;;;;25.27;13.23;;;-0.90;99.90;;;;;;6156985;23;20021;-80
2021/12/27 01:42:37;;;;;;;23.92;12.80;;;-0.90;99.90;;;;;;6156997;23;20409;-81
2021/12/27 01:45:06;;;;;;;21.38;12.23;;;-0.90;99.90;;;;;;6133394;23;20028;-80
2021/12/27 01:47:32;;;;;;;22.77;12.45;;;-0.90;99.90;;;;;;6131843;23;20024;-79
2021/12/27 01:50:01;;;;;;;21.23;12.20;;;-0.80;99.90;;;;;;6157982;23;20402;-80
2021/12/27 01:52:27;;;;;;;23.30;12.57;;;-0.80;99.90;;;;;;6132759;23;20021;-80
2021/12/27 01:54:53;;;;;;;22.17;12.50;;;-0.80;99.90;;;;;;6157028;23;20130;-82
2021/12/27 01:57:19;;;;;;;24.70;13.20;;;-0.90;99.90;;;;;;6108407;23;20460;-81
2021/12/27 01:59:45;;;;;;;22.75;11.68;;;-0.80;99.90;;;;;;6157017;23;20119;-80
2021/12/27 02:02:12;;;;;;;22.85;13.63;;;-0.80;99.90;;;;;;6156884;23;20029;-81
2021/12/27 02:04:37;;;;;;;22.42;12.27;;;-0.80;99.90;;;;;;6131862;23;20055;-80
2021/12/27 02:07:03;;;;;;;21.45;13.13;;;-0.80;99.90;;;;;;6157378;23;20025;-79
2021/12/27 02:09:46;;;;;;;23.00;11.77;;;-0.80;99.90;;;;;;6156580;23;20433;-79
2021/12/27 02:12:20;;;;;;;23.02;11.95;;;-0.80;99.90;;;;;;6132836;23;20025;-80
2021/12/27 02:14:46;;;;;;;23.65;12.20;;;-0.80;99.90;;;;;;6132497;23;20017;-80
2021/12/27 02:17:16;;;;;;;25.27;14.02;;;-0.80;99.90;;;;;;6132568;23;20479;-81
2021/12/27 02:19:51;;;;;;;22.25;11.48;;;-0.90;99.90;;;;;;6184036;23;20109;-80
2021/12/27 02:22:17;;;;;;;22.45;12.00;;;-0.90;99.90;;;;;;6157042;23;20079;-80
2021/12/27 02:24:43;;;;;;;22.63;11.82;;;-0.90;99.90;;;;;;6158847;23;20028;-81
2021/12/27 02:27:14;;;;;;;21.50;12.63;;;-1.00;99.90;;;;;;6158970;23;20128;-80
2021/12/27 02:29:40;;;;;;;19.42;11.65;;;-1.00;99.90;;;;;;6158695;23;20060;-80
2021/12/27 02:32:06;;;;;;;20.10;11.65;;;-1.00;99.90;;;;;;6185610;23;20472;-80
2021/12/27 02:34:33;;;;;;;24.10;12.52;;;-1.00;99.90;;;;;;6158403;23;20056;-80
2021/12/27 02:37:00;;;;;;;26.88;12.93;;;-1.00;99.90;;;;;;6158985;23;20025;-81
2021/12/27 02:39:25;;;;;;;26.17;13.98;;;-1.00;99.90;;;;;;6159001;23;20099;-80
2021/12/27 02:41:55;;;;;;;28.58;14.23;;;-1.10;99.90;;;;;;6158695;23;20059;-81
2021/12/27 02:44:21;;;;;;;25.98;12.63;;;-1.10;99.90;;;;;;6185709;23;20059;-81
2021/12/27 02:46:47;;;;;;;22.45;12.50;;;-1.10;99.90;;;;;;6158730;23;20024;-81
2021/12/27 02:49:12;;;;;;;24.33;12.57;;;-1.10;99.90;;;;;;6158540;23;20104;-79
2021/12/27 02:51:43;;;;;;;22.45;11.98;;;-1.10;99.90;;;;;;6134218;23;20025;-81
2021/12/27 02:54:15;;;;;;;22.45;12.57;;;-1.10;99.90;;;;;;6158915;23;20021;-81
2021/12/27 02:56:41;;;;;;;25.52;13.63;;;-1.10;99.90;;;;;;6158383;23;20017;-81
2021/12/27 02:59:06;;;;;;;22.38;12.77;;;-1.10;99.90;;;;;;6134173;23;20486;-81
2021/12/27 03:01:32;;;;;;;23.55;12.65;;;-1.10;99.90;;;;;;6133796;23;20080;-80
2021/12/27 03:03:58;;;;;;;26.65;13.70;;;-1.10;99.90;;;;;;6109591;23;20024;-81
2021/12/27 03:06:24;;;;;;;27.88;14.35;;;-1.10;99.90;;;;;;6158346;23;20055;-80
2021/12/27 03:08:51;;;;;;;21.92;12.60;;;-1.20;99.90;;;;;;6183596;23;20036;-80
2021/12/27 03:11:17;;;;;;;21.60;12.20;;;-1.20;99.90;;;;;;6185428;23;20017;-81
2021/12/27 03:13:50;;;;;;;24.60;13.48;;;-1.20;99.90;;;;;;6158346;23;20036;-81
2021/12/27 03:16:18;;;;;;;24.83;13.23;;;-1.20;99.90;;;;;;6158486;23;20017;-81
2021/12/27 03:18:47;;;;;;;26.75;13.68;;;-1.20;99.90;;;;;;6157638;23;20024;-81
2021/12/27 03:21:13;;;;;;;25.25;13.02;;;-1.10;99.90;;;;;;6157570;23;20461;-81
2021/12/27 03:23:41;;;;;;;21.70;13.15;;;-1.20;99.90;;;;;;6158138;23;20760;-82
2021/12/27 03:26:08;;;;;;;23.40;13.13;;;-1.20;99.90;;;;;;6158212;23;20519;-82
2021/12/27 03:28:35;;;;;;;24.20;13.70;;;-1.20;99.90;;;;;;6133924;23;20087;-81
2021/12/27 03:31:02;;;;;;;25.23;13.63;;;-1.20;99.90;;;;;;6158703;23;20025;-80
2021/12/27 03:33:29;;;;;;;27.10;14.68;;;-1.20;99.90;;;;;;6159210;23;20457;-81
2021/12/27 03:36:01;;;;;;;27.08;13.43;;;-1.10;99.90;;;;;;6160177;23;20444;-81
2021/12/27 03:38:30;;;;;;;26.88;14.38;;;-1.10;99.90;;;;;;6161138;23;20028;-81
2021/12/27 03:40:56;;;;;;;27.85;15.15;;;-1.10;99.90;;;;;;6166989;23;20051;-81
2021/12/27 03:43:22;;;;;;;23.92;14.35;;;-1.10;99.90;;;;;;6163341;23;20088;-81
2021/12/27 03:45:48;;;;;;;23.90;13.82;;;-1.10;99.90;;;;;;6158212;23;20341;-81
2021/12/27 03:48:14;;;;;;;27.02;14.35;;;-1.10;99.90;;;;;;6182074;23;20036;-81
2021/12/27 03:50:40;;;;;;;25.45;13.30;;;-1.10;99.90;;;;;;6182693;23;20025;-81
2021/12/27 03:53:15;;;;;;;25.02;13.05;;;-1.10;99.90;;;;;;6158747;23;20023;-81
2021/12/27 03:55:42;;;;;;;26.83;14.15;;;-1.10;99.90;;;;;;6158157;23;20028;-81
2021/12/27 03:58:11;;;;;;;26.38;14.88;;;-1.00;99.90;;;;;;6158109;23;20033;-81
2021/12/27 04:00:50;;;;;;;25.23;14.20;;;-1.00;99.90;;;;;;6157871;23;20445;-82
2021/12/27 04:03:17;;;;;;;26.15;14.30;;;-1.00;99.90;;;;;;6184346;23;20394;-82
2021/12/27 04:05:43;;;;;;;25.52;14.80;;;-0.90;99.90;;;;;;6133548;23;20345;-82
2021/12/27 04:08:09;;;;;;;28.10;15.20;;;-0.90;99.90;;;;;;6157903;23;20035;-81
2021/12/27 04:10:38;;;;;;;34.38;15.93;;;-0.90;99.90;;;;;;6157906;23;20017;-82
2021/12/27 04:13:06;;;;;;;29.63;14.93;;;-0.90;99.90;;;;;;6157767;23;20021;-81
2021/12/27 04:15:32;;;;;;;25.85;15.20;;;-0.90;99.90;;;;;;6157787;23;20017;-82
2021/12/27 04:17:58;;;;;;;27.08;15.40;;;-0.80;99.90;;;;;;6184722;23;20028;-81
2021/12/27 04:20:25;;;;;;;28.27;15.88;;;-0.80;99.90;;;;;;6158095;23;20044;-81
2021/12/27 04:22:50;;;;;;;25.50;13.85;;;-0.80;99.90;;;;;;6157248;23;20036;-82
2021/12/27 04:25:18;;;;;;;29.55;15.18;;;-0.80;99.90;;;;;;6157683;23;20341;-81
2021/12/27 04:27:45;;;;;;;24.75;14.85;;;-0.70;99.90;;;;;;6157854;23;20346;-82
2021/12/27 04:30:13;;;;;;;28.63;15.25;;;-0.80;99.90;;;;;;6157644;23;20499;-82
2021/12/27 04:32:39;;;;;;;26.02;15.45;;;-0.70;99.90;;;;;;6157593;23;20025;-81
2021/12/27 04:35:06;;;;;;;26.60;14.57;;;-0.70;99.90;;;;;;6157936;23;20021;-83
2021/12/27 04:37:31;;;;;;;31.75;16.20;;;-0.70;99.90;;;;;;6157588;23;20025;-82
2021/12/27 04:39:59;;;;;;;29.38;15.55;;;-0.70;99.90;;;;;;6157991;23;20017;-82
2021/12/27 04:42:27;;;;;;;28.25;14.90;;;-0.60;99.90;;;;;;6184229;23;20057;-82
2021/12/27 04:44:53;;;;;;;26.33;15.57;;;-0.60;99.90;;;;;;6158151;23;20017;-82
2021/12/27 04:47:19;;;;;;;27.25;14.15;;;-0.60;99.90;;;;;;6157446;23;20358;-82
2021/12/27 04:49:45;;;;;;;32.75;15.05;;;-0.60;99.90;;;;;;6157536;23;20025;-82
2021/12/27 04:52:11;;;;;;;25.95;15.73;;;-0.60;99.90;;;;;;6157251;23;20099;-81
2021/12/27 04:54:38;;;;;;;26.17;14.38;;;-0.50;99.90;;;;;;6157596;23;20032;-83
2021/12/27 04:57:04;;;;;;;33.10;16.02;;;-0.50;99.90;;;;;;6157758;23;20017;-82
2021/12/27 04:59:30;;;;;;;28.70;16.75;;;-0.50;99.90;;;;;;6157310;23;20029;-82
2021/12/27 05:01:55;;;;;;;31.77;16.65;;;-0.50;99.90;;;;;;6174612;23;20059;-82
2021/12/27 05:04:21;;;;;;;33.28;16.90;;;-0.50;99.90;;;;;;6155540;23;20028;-81
2021/12/27 05:06:47;;;;;;;29.50;15.43;;;-0.50;99.90;;;;;;6132895;23;20029;-82
2021/12/27 05:09:13;;;;;;;27.08;15.35;;;-0.40;99.90;;;;;;6156924;23;20017;-82
2021/12/27 05:11:47;;;;;;;31.50;17.00;;;-0.50;99.90;;;;;;6133453;23;20473;-81
2021/12/27 05:14:13;;;;;;;31.55;17.85;;;-0.40;99.90;;;;;;6132863;23;20059;-81
2021/12/27 05:16:39;;;;;;;34.25;17.27;;;-0.50;99.90;;;;;;6157590;23;20025;-81
2021/12/27 05:19:05;;;;;;;33.40;18.60;;;-0.50;99.90;;;;;;6187901;23;20353;-80
2021/12/27 05:21:30;;;;;;;36.58;20.08;;;-0.50;99.90;;;;;;6161436;23;20036;-80
2021/12/27 05:23:56;;;;;;;35.13;19.38;;;-0.50;99.90;;;;;;6162968;23;20056;-81
2021/12/27 05:26:22;;;;;;;31.92;18.52;;;-0.50;99.90;;;;;;6157258;23;20053;-82
2021/12/27 05:28:48;;;;;;;35.67;19.95;;;-0.50;99.90;;;;;;6155776;23;20028;-81
2021/12/27 05:31:14;;;;;;;33.65;20.70;;;-0.50;99.90;;;;;;6132974;23;20765;-81
2021/12/27 05:33:40;;;;;;;35.13;20.92;;;-0.50;99.90;;;;;;6157640;23;20493;-81
2021/12/27 05:36:06;;;;;;;37.65;20.23;;;-0.50;99.90;;;;;;6157197;23;20025;-81
2021/12/27 05:38:33;;;;;;;41.60;20.35;;;-0.50;99.90;;;;;;6157465;23;20017;-82
2021/12/27 05:41:00;;;;;;;38.58;21.08;;;-0.50;99.90;;;;;;6156482;23;20036;-82
2021/12/27 05:43:27;;;;;;;40.85;20.08;;;-0.50;99.90;;;;;;6182068;23;20024;-82
2021/12/27 05:45:53;;;;;;;40.42;20.00;;;-0.50;99.90;;;;;;6184211;23;20017;-82
2021/12/27 05:48:19;;;;;;;40.45;21.48;;;-0.50;99.90;;;;;;6157579;23;20029;-81
2021/12/27 05:50:44;;;;;;;44.30;23.30;;;-0.50;99.90;;;;;;6157368;23;20100;-82
2021/12/27 05:53:10;;;;;;;38.97;23.48;;;-0.50;99.90;;;;;;6132223;23;20025;-81
2021/12/27 06:06:22;;;;;;;41.75;22.48;;;-0.50;99.90;;;;;;6270606;22;1301273;-81
2021/12/27 06:08:48;;;;;;;48.40;25.40;;;-0.50;99.90;;;;;;6251506;23;20024;-80
2021/12/27 06:11:14;;;;;;;42.03;22.00;;;-0.40;99.90;;;;;;6226045;23;20031;-81
2021/12/27 06:13:40;;;;;;;45.20;24.60;;;-0.50;99.90;;;;;;6251290;23;20024;-80
2021/12/27 06:16:06;;;;;;;39.17;22.10;;;-0.50;99.90;;;;;;6225538;23;20028;-81
2021/12/27 06:18:32;;;;;;;47.97;24.83;;;-0.50;99.90;;;;;;6225415;23;20016;-82
2021/12/27 06:20:58;;;;;;;51.17;25.58;;;-0.40;99.90;;;;;;6253282;22;20070;-81
2021/12/27 06:23:23;;;;;;;45.40;23.50;;;-0.40;99.90;;;;;;6251250;23;20020;-81
2021/12/27 06:25:49;;;;;;;45.22;23.20;;;-0.40;99.90;;;;;;6251373;23;20098;-82
2021/12/27 06:28:17;;;;;;;54.53;25.40;;;-0.40;99.90;;;;;;6225829;23;20027;-81
2021/12/27 06:30:43;;;;;;;56.50;26.27;;;-0.40;99.90;;;;;;6225841;23;20027;-82
2021/12/27 06:33:10;;;;;;;51.20;27.20;;;-0.40;99.90;;;;;;6251085;23;20387;-81
2021/12/27 06:35:36;;;;;;;43.22;23.48;;;-0.40;99.90;;;;;;6252623;22;20027;-81
2021/12/27 06:38:03;;;;;;;47.83;25.30;;;-0.40;99.90;;;;;;6252846;22;20047;-81
2021/12/27 06:40:30;;;;;;;44.33;23.90;;;-0.30;99.90;;;;;;6252744;22;20016;-82
2021/12/27 06:42:57;;;;;;;52.42;24.98;;;-0.30;99.90;;;;;;6250997;23;20024;-82
2021/12/27 06:45:43;;;;;;;43.53;23.52;;;-0.30;99.90;;;;;;6252790;23;20055;-81
2021/12/27 06:48:10;;;;;;;48.20;25.73;;;-0.30;99.90;;;;;;6223369;23;20043;-81
2021/12/27 06:50:45;;;;;;;50.08;26.35;;;-0.30;99.90;;;;;;6253029;22;20031;-82
2021/12/27 06:53:16;;;;;;;50.83;25.58;;;-0.30;99.90;;;;;;6253188;22;20020;-82
2021/12/27 06:55:47;;;;;;;47.90;23.70;;;-0.20;99.90;;;;;;6251157;23;20034;-83
2021/12/27 06:58:13;;;;;;;51.78;24.73;;;-0.20;99.90;;;;;;6251023;23;20538;-82
2021/12/27 07:00:39;;;;;;;53.80;27.13;;;-0.20;99.90;;;;;;6249886;23;20027;-82
2021/12/27 07:03:05;;;;;;;53.40;27.38;;;-0.20;99.90;;;;;;6250825;23;20024;-83
2021/12/27 07:05:31;;;;;;;55.20;27.02;;;-0.20;99.90;;;;;;6248851;23;20085;-83
2021/12/27 07:07:57;;;;;;;53.47;28.15;;;-0.20;99.90;;;;;;6243718;23;20245;-81
2021/12/27 07:10:23;;;;;;;55.38;28.33;;;-0.20;99.90;;;;;;6193928;23;20450;-81
2021/12/27 07:12:50;;;;;;;59.13;28.13;;;-0.10;99.90;;;;;;6243459;23;20105;-83
2021/12/27 07:15:16;;;;;;;57.65;29.45;;;-0.20;99.90;;;;;;6244091;23;20024;-82
2021/12/27 07:18:01;;;;;;;49.20;26.75;;;-0.10;99.90;;;;;;6246050;22;20355;-82
2021/12/27 07:20:27;;;;;;;59.05;26.83;;;-0.10;99.90;;;;;;6218803;23;20028;-83
2021/12/27 07:22:53;;;;;;;62.05;28.95;;;-0.10;99.90;;;;;;6216894;23;20017;-82
2021/12/27 07:25:19;;;;;;;54.08;27.63;;;-0.10;99.90;;;;;;6243886;23;20108;-82
2021/12/27 07:27:44;;;;;;;60.13;28.85;;;-0.10;99.90;;;;;;6216585;23;20359;-83
2021/12/27 07:30:12;;;;;;;73.07;28.73;;;0.00;99.90;;;;;;6218614;23;20016;-82
2021/12/27 07:32:38;;;;;;;62.45;28.23;;;0.00;99.90;;;;;;6223052;23;20028;-82
2021/12/27 07:35:06;;;;;;;64.65;30.60;;;0.00;99.90;;;;;;6246318;23;20024;-82
2021/12/27 07:37:32;;;;;;;64.75;29.05;;;0.00;99.90;;;;;;6187250;23;20021;-83
2021/12/27 07:39:58;;;;;;;59.53;27.95;;;0.00;99.90;;;;;;6186972;23;20051;-82
2021/12/27 07:42:24;;;;;;;58.63;25.75;;;0.00;99.90;;;;;;6187032;23;20414;-82
2021/12/27 07:44:50;;;;;;;60.88;29.52;;;0.00;99.90;;;;;;6187215;23;20024;-82
2021/12/27 07:47:16;;;;;;;60.80;27.55;;;0.00;99.90;;;;;;6186960;23;20096;-83
2021/12/27 07:49:42;;;;;;;60.70;27.63;;;0.00;99.90;;;;;;6187011;23;20055;-82
2021/12/27 07:52:08;;;;;;;58.10;28.40;;;0.10;99.90;;;;;;6186570;23;20031;-82
2021/12/27 07:54:34;;;;;;;65.88;28.20;;;0.10;99.90;;;;;;6162191;23;20503;-83
2021/12/27 07:57:00;;;;;;;60.65;28.20;;;0.10;99.90;;;;;;6186789;23;20452;-84
2021/12/27 07:59:27;;;;;;;57.22;26.65;;;0.10;99.90;;;;;;6186861;23;20103;-83
2021/12/27 08:01:53;;;;;;;60.22;27.85;;;0.20;99.90;;;;;;6186271;23;20449;-84
2021/12/27 08:04:19;;;;;;;58.50;28.55;;;0.10;99.90;;;;;;6185764;23;20476;-82
2021/12/27 08:06:45;;;;;;;62.65;29.27;;;0.20;99.90;;;;;;6186503;23;20032;-83
2021/12/27 08:09:16;;;;;;;61.90;30.15;;;0.10;99.90;;;;;;6203459;23;20024;-82
2021/12/27 08:11:42;;;;;;;58.95;27.92;;;0.20;99.90;;;;;;6242491;23;20065;-82
2021/12/27 08:14:08;;;;;;;56.15;28.92;;;0.20;99.90;;;;;;6242162;23;20074;-84
2021/12/27 08:16:34;;;;;;;56.97;27.55;;;0.20;99.90;;;;;;6218128;23;20024;-83
2021/12/27 08:19:00;;;;;;;51.08;25.83;;;0.20;99.90;;;;;;6217960;23;20356;-83
2021/12/27 08:21:26;;;;;;;57.78;28.88;;;0.20;99.90;;;;;;6243379;23;20024;-83
2021/12/27 08:23:53;;;;;;;61.70;27.73;;;0.20;99.90;;;;;;6245310;22;20016;-83
2021/12/27 08:26:19;;;;;;;59.30;28.73;;;0.20;99.90;;;;;;6243124;23;20031;-83
2021/12/27 08:28:48;;;;;;;63.83;30.67;;;0.30;99.90;;;;;;6243360;23;20467;-82
2021/12/27 08:31:14;;;;;;;68.18;28.77;;;0.30;99.90;;;;;;6218626;23;20099;-82
2021/12/27 08:33:40;;;;;;;67.22;28.33;;;0.30;99.90;;;;;;6244988;23;20456;-83
2021/12/27 08:36:06;;;;;;;70.47;29.40;;;0.30;99.90;;;;;;6224705;23;20055;-82
2021/12/27 08:38:32;;;;;;;58.65;28.38;;;0.30;99.90;;;;;;6220796;23;20024;-82
2021/12/27 08:40:58;;;;;;;61.40;27.48;;;0.30;99.90;;;;;;6217333;23;20024;-83
2021/12/27 08:43:25;;;;;;;64.90;29.30;;;0.30;99.90;;;;;;6241967;23;20020;-83
2021/12/27 08:45:52;;;;;;;64.05;29.55;;;0.30;99.90;;;;;;6243141;23;20411;-82
2021/12/27 08:48:18;;;;;;;65.82;29.80;;;0.40;99.90;;;;;;6217636;23;20031;-82
2021/12/27 08:50:44;;;;;;;58.95;27.55;;;0.40;99.90;;;;;;6243101;23;20024;-82
2021/12/27 08:53:10;;;;;;;64.18;29.23;;;0.30;99.90;;;;;;6243116;23;20034;-83
2021/12/27 08:55:37;;;;;;;76.90;31.75;;;0.40;99.90;;;;;;6217258;23;20062;-82
2021/12/27 08:58:04;;;;;;;66.35;30.95;;;0.40;99.90;;;;;;6218758;23;20059;-82
2021/12/27 09:00:30;;;;;;;76.70;31.75;;;0.40;99.90;;;;;;6243517;23;20059;-82
2021/12/27 09:02:56;;;;;;;72.03;31.45;;;0.40;99.90;;;;;;6217163;23;20020;-82
2021/12/27 09:05:23;;;;;;;74.85;31.55;;;0.40;99.90;;;;;;6243045;23;20356;-82
2021/12/27 09:07:48;;;;;;;84.97;35.33;;;0.50;99.90;;;;;;6242625;23;20031;-81
2021/12/27 09:10:15;;;;;;;87.15;32.67;;;0.50;99.90;;;;;;6242779;23;20020;-83
2021/12/27 09:12:41;;;;;;;81.80;33.00;;;0.50;99.90;;;;;;6191821;23;20082;-82
2021/12/27 09:15:16;;;;;;;88.07;36.03;;;0.50;99.90;;;;;;6218118;23;20086;-82
2021/12/27 09:17:45;;;;;;;86.38;34.80;;;0.50;99.90;;;;;;6218163;23;20027;-82
2021/12/27 09:20:12;;;;;;;93.35;35.85;;;0.50;99.90;;;;;;6243158;23;20376;-82
2021/12/27 09:22:37;;;;;;;96.03;36.97;;;0.50;99.90;;;;;;6217465;23;20062;-83
2021/12/27 09:25:04;;;;;;;96.82;35.65;;;0.60;99.90;;;;;;6242837;23;20028;-83
2021/12/27 09:27:30;;;;;;;98.32;35.35;;;0.60;99.90;;;;;;6217972;23;20107;-82
2021/12/27 09:29:56;;;;;;;104.50;36.00;;;0.60;99.90;;;;;;6243169;23;20024;-81
2021/12/27 09:32:23;;;;;;;100.65;36.00;;;0.70;99.90;;;;;;6250887;22;20024;-83
2021/12/27 09:34:50;;;;;;;101.97;37.45;;;0.70;99.90;;;;;;6246669;23;20066;-83
2021/12/27 09:37:16;;;;;;;99.35;35.03;;;0.70;99.90;;;;;;6242780;23;20048;-83
2021/12/27 09:39:42;;;;;;;94.75;35.15;;;0.70;99.90;;;;;;6216849;23;20074;-83
2021/12/27 09:42:08;;;;;;;95.97;37.63;;;0.70;99.90;;;;;;6242631;23;20452;-82
2021/12/27 09:44:34;;;;;;;93.60;36.08;;;0.70;99.90;;;;;;6242671;23;20031;-83
2021/12/27 09:47:00;;;;;;;110.32;37.97;;;0.70;99.90;;;;;;6242486;23;20066;-82
2021/12/27 09:49:29;;;;;;;94.85;36.67;;;0.80;99.90;;;;;;6242690;23;20052;-82
2021/12/27 09:51:59;;;;;;;88.80;36.70;;;0.80;99.90;;;;;;6242710;23;20027;-83
2021/12/27 09:54:49;;;;;;;102.05;37.75;;;0.80;99.90;;;;;;6218061;23;20023;-86
2021/12/27 09:57:20;;;;;;;101.45;36.72;;;0.80;99.90;;;;;;6242577;23;20031;-83
2021/12/27 09:59:45;;;;;;;102.68;37.88;;;0.90;99.90;;;;;;6217449;23;20016;-84
2021/12/27 10:02:11;;;;;;;105.97;37.70;;;0.90;99.90;;;;;;6242081;23;20024;-84
2021/12/27 10:04:37;;;;;;;112.30;38.22;;;0.90;99.90;;;;;;6242633;23;20077;-84
2021/12/27 10:07:03;;;;;;;112.35;38.78;;;0.90;99.90;;;;;;6217111;23;20057;-84
2021/12/27 10:09:33;;;;;;;122.20;39.15;;;0.90;99.90;;;;;;6217123;23;20024;-83
2021/12/27 10:12:08;;;;;;;121.88;40.38;;;0.90;99.90;;;;;;6242399;23;20039;-83
2021/12/27 10:14:35;;;;;;;103.72;38.70;;;1.00;99.90;;;;;;6241426;23;20082;-84
2021/12/27 10:17:14;;;;;;;88.18;34.78;;;1.00;99.90;;;;;;6216500;23;20016;-83
2021/12/27 10:19:40;;;;;;;93.15;35.08;;;1.00;99.90;;;;;;6190508;23;20028;-83
2021/12/27 10:22:11;;;;;;;80.25;34.33;;;1.00;99.90;;;;;;6217096;23;20460;-83
2021/12/27 10:24:39;;;;;;;78.00;32.20;;;1.00;99.90;;;;;;6217253;23;20031;-84
2021/12/27 10:27:06;;;;;;;89.82;35.13;;;1.00;99.90;;;;;;6242725;23;20020;-84
2021/12/27 10:29:35;;;;;;;102.93;35.10;;;1.00;99.90;;;;;;6241572;23;20079;-84
2021/12/27 10:32:09;;;;;;;95.47;36.05;;;1.00;99.90;;;;;;6242019;23;20020;-83
2021/12/27 10:34:43;;;;;;;85.20;33.33;;;1.00;99.90;;;;;;6245005;23;20347;-84
2021/12/27 10:37:09;;;;;;;95.45;37.75;;;1.00;99.90;;;;;;6249146;23;20048;-83
2021/12/27 10:39:47;;;;;;;90.82;34.65;;;1.00;99.90;;;;;;6248101;23;20051;-83
2021/12/27 10:42:35;;;;;;;98.88;34.13;;;1.00;99.90;;;;;;6245006;23;20507;-84
2021/12/27 10:45:11;;;;;;;83.85;34.00;;;1.00;99.90;;;;;;6243739;23;20024;-83
2021/12/27 10:47:49;;;;;;;93.63;33.50;;;1.00;99.90;;;;;;6244192;23;20031;-83
2021/12/27 10:50:31;;;;;;;91.25;34.78;;;1.00;99.90;;;;;;6217404;23;20356;-83
2021/12/27 10:53:10;;;;;;;81.18;32.25;;;1.00;99.90;;;;;;6244041;23;20031;-83
2021/12/27 10:55:59;;;;;;;82.35;32.47;;;1.10;99.90;;;;;;6188035;23;20025;-83
2021/12/27 10:58:29;;;;;;;77.13;32.88;;;1.10;99.90;;;;;;6139151;23;20488;-83
2021/12/27 11:01:04;;;;;;;76.43;30.88;;;1.10;99.90;;;;;;6211372;23;20029;-83
2021/12/27 11:03:31;;;;;;;81.43;33.47;;;1.20;99.90;;;;;;6211640;23;20411;-82
2021/12/27 11:05:58;;;;;;;82.93;33.38;;;1.20;99.90;;;;;;6212281;23;20043;-83
2021/12/27 11:08:26;;;;;;;88.53;34.25;;;1.20;99.90;;;;;;6212131;23;20171;-83
2021/12/27 11:10:53;;;;;;;85.35;32.38;;;1.20;99.90;;;;;;6187111;23;20016;-82
2021/12/27 11:13:19;;;;;;;84.75;33.38;;;1.20;99.90;;;;;;6187092;23;20078;-83
2021/12/27 11:15:45;;;;;;;82.35;32.45;;;1.30;99.90;;;;;;6187447;23;20549;-83
2021/12/27 11:18:13;;;;;;;87.60;36.42;;;1.30;99.90;;;;;;6205397;23;20056;-84
2021/12/27 11:20:48;;;;;;;84.22;34.45;;;1.30;99.90;;;;;;6186743;23;20127;-83
2021/12/27 11:23:16;;;;;;;95.57;31.77;;;1.40;99.90;;;;;;6162837;23;20025;-83
2021/12/27 11:25:45;;;;;;;95.18;35.20;;;1.40;99.90;;;;;;6190631;23;20432;-84
2021/12/27 11:28:29;;;;;;;99.75;31.23;;;1.40;99.90;;;;;;6243903;23;20035;-83
2021/12/27 11:30:56;;;;;;;84.78;30.88;;;1.40;99.90;;;;;;6217830;23;20070;-83
2021/12/27 11:33:23;;;;;;;103.32;32.85;;;1.40;99.90;;;;;;6223610;23;20024;-83
2021/12/27 11:35:51;;;;;;;96.28;33.67;;;1.40;99.90;;;;;;6225360;23;20028;-82
2021/12/27 11:38:36;;;;;;;107.75;36.20;;;1.40;99.90;;;;;;6245682;23;20020;-83
2021/12/27 11:41:06;;;;;;;110.73;34.93;;;1.40;99.90;;;;;;6243433;23;20031;-83
2021/12/27 11:43:49;;;;;;;122.32;36.53;;;1.40;99.90;;;;;;6243670;23;20403;-83
2021/12/27 11:46:15;;;;;;;113.55;36.80;;;1.40;99.90;;;;;;6217440;23;20046;-82
2021/12/27 11:48:48;;;;;;;105.68;35.05;;;1.40;99.90;;;;;;6243687;23;20348;-83
2021/12/27 11:51:15;;;;;;;113.05;38.05;;;1.40;99.90;;;;;;6243799;23;20051;-83
2021/12/27 11:53:49;;;;;;;110.30;37.45;;;1.50;99.90;;;;;;6219171;23;20352;-84
2021/12/27 11:56:44;;;;;;;121.13;39.45;;;1.50;99.90;;;;;;6169491;23;20527;-84
2021/12/27 11:59:23;;;;;;;124.50;38.00;;;1.50;99.90;;;;;;6243614;23;20024;-83
2021/12/27 12:01:57;;;;;;;111.32;35.45;;;1.50;99.90;;;;;;6244914;22;20612;-83
2021/12/27 12:04:46;;;;;;;108.88;35.35;;;1.50;99.90;;;;;;6242767;23;20016;-84
2021/12/27 12:07:35;;;;;;;127.10;40.20;;;1.60;99.90;;;;;;6216905;22;20344;-84
2021/12/27 12:10:06;;;;;;;126.30;37.50;;;1.60;99.90;;;;;;6243801;23;20043;-84
2021/12/27 12:12:33;;;;;;;129.43;38.28;;;1.60;99.90;;;;;;6242552;23;20024;-84
2021/12/27 12:15:01;;;;;;;142.25;40.17;;;1.60;99.90;;;;;;6245001;22;20078;-84
2021/12/27 12:17:48;;;;;;;134.70;40.92;;;1.70;99.90;;;;;;6243966;23;20156;-84
2021/12/27 12:20:36;;;;;;;158.50;39.75;;;1.70;99.90;;;;;;6243368;23;20020;-84
2021/12/27 12:23:07;;;;;;;134.98;41.42;;;1.80;99.90;;;;;;6243230;23;20031;-84
2021/12/27 12:25:34;;;;;;;138.52;40.38;;;1.80;99.90;;;;;;6244249;23;20020;-84
2021/12/27 12:28:06;;;;;;;146.48;41.10;;;1.90;99.90;;;;;;6250441;23;20016;-83
2021/12/27 12:30:38;;;;;;;146.93;40.60;;;1.90;99.90;;;;;;6242602;23;20024;-85
2021/12/27 12:33:28;;;;;;;152.60;41.92;;;2.00;99.90;;;;;;6243139;23;20020;-83
2021/12/27 12:36:01;;;;;;;134.07;41.15;;;2.00;99.90;;;;;;6242044;23;20356;-84
2021/12/27 12:38:43;;;;;;;144.27;40.85;;;2.00;99.90;;;;;;6243223;23;20043;-84
2021/12/27 12:41:22;;;;;;;150.43;42.95;;;2.00;99.90;;;;;;6242019;23;20555;-84
2021/12/27 12:43:57;;;;;;;138.07;40.70;;;2.00;99.90;;;;;;6218465;23;20484;-83
2021/12/27 12:46:50;;;;;;;168.85;41.30;;;2.00;99.90;;;;;;6242001;23;20031;-83
2021/12/27 12:49:22;;;;;;;131.05;40.60;;;2.00;99.90;;;;;;6169520;23;20017;-82
2021/12/27 12:51:51;;;;;;;154.90;43.10;;;2.00;99.90;;;;;;6241950;23;20103;-83
2021/12/27 12:54:19;;;;;;;150.63;40.38;;;2.00;99.90;;;;;;6241783;23;20016;-84